createdAt,value
2018-04-22T00:01:57.619Z,98790.19
2018-04-22T00:04:25.019Z,98787.59
2018-04-22T00:06:52.508Z,98784.64
2018-04-22T00:09:19.987Z,98786.98
2018-04-22T00:11:47.385Z,98784.42
2018-04-22T00:14:14.788Z,98789.83
2018-04-22T00:16:42.201Z,98782.25
2018-04-22T00:19:10.016Z,98782.48
2018-04-22T00:21:37.417Z,98778.08
2018-04-22T00:24:04.813Z,98775.23
2018-04-22T00:26:32.323Z,98770.50
2018-04-22T00:28:59.728Z,98772.08
2018-04-22T00:31:27.885Z,98762.02
2018-04-22T00:33:55.377Z,98760.80
2018-04-22T00:36:22.791Z,98758.22
2018-04-22T00:38:50.201Z,98752.95
2018-04-22T00:41:17.615Z,98753.46
2018-04-22T00:43:45.345Z,98759.36
2018-04-22T00:46:12.728Z,98750.42
2018-04-22T00:48:40.136Z,98753.95
2018-04-22T00:51:07.516Z,98743.73
2018-04-22T00:56:37.935Z,98747.12
2018-04-22T00:59:05.342Z,98742.04
2018-04-22T01:01:32.730Z,98740.78
2018-04-22T01:04:00.134Z,98736.17
2018-04-22T01:06:27.520Z,98734.31
2018-04-22T01:08:54.921Z,98736.05
2018-04-22T01:11:22.407Z,98737.98
2018-04-22T01:13:49.799Z,98742.39
2018-04-22T01:16:17.204Z,98734.52
2018-04-22T01:18:44.680Z,98728.23
2018-04-22T01:21:12.153Z,98724.38
2018-04-22T01:23:39.544Z,98727.38
2018-04-22T01:26:06.951Z,98731.66
2018-04-22T01:28:34.349Z,98735.78
2018-04-22T01:31:01.749Z,98735.46
2018-04-22T01:33:29.151Z,98733.16
2018-04-22T01:35:56.554Z,98731.30
2018-04-22T01:38:24.841Z,98724.42
2018-04-22T01:40:52.243Z,98722.75
2018-04-22T01:43:19.643Z,98727.97
2018-04-22T01:45:47.048Z,98727.77
2018-04-22T01:48:14.453Z,98724.48
2018-04-22T01:50:41.844Z,98728.48
2018-04-22T01:53:09.724Z,98723.64
2018-04-22T01:55:37.131Z,98727.98
2018-04-22T01:58:04.536Z,98730.08
2018-04-22T02:00:31.946Z,98724.91
2018-04-22T02:02:59.352Z,98718.46
2018-04-22T02:05:26.760Z,98720.69
2018-04-22T02:07:54.183Z,98722.00
2018-04-22T02:10:21.589Z,98718.66
2018-04-22T02:12:49.897Z,98717.31
2018-04-22T02:15:17.292Z,98720.69
2018-04-22T02:17:44.697Z,98720.42
2018-04-22T02:20:12.135Z,98728.00
2018-04-22T02:22:39.539Z,98719.06
2018-04-22T02:25:06.943Z,98718.65
2018-04-22T02:27:34.347Z,98715.72
2018-04-22T02:30:03.056Z,98712.58
2018-04-22T02:32:30.454Z,98713.35
2018-04-22T02:34:57.852Z,98705.91
2018-04-22T02:37:25.272Z,98704.81
2018-04-22T02:39:52.655Z,98700.38
2018-04-22T02:42:20.068Z,98700.25
2018-04-22T02:44:47.466Z,98694.60
2018-04-22T02:47:14.872Z,98696.56
2018-04-22T02:49:42.260Z,98692.23
2018-04-22T02:52:09.664Z,98699.53
2018-04-22T02:54:37.105Z,98691.02
2018-04-22T02:57:05.277Z,98689.69
2018-04-22T02:59:32.675Z,98689.70
2018-04-22T03:02:00.070Z,98690.72
2018-04-22T03:04:27.597Z,98692.80
2018-04-22T03:06:54.991Z,98681.84
2018-04-22T03:09:22.385Z,98677.17
2018-04-22T03:11:50.006Z,98672.61
2018-04-22T03:14:17.383Z,98671.48
2018-04-22T03:16:44.781Z,98667.89
2018-04-22T03:19:12.181Z,98666.98
2018-04-22T03:21:39.719Z,98665.95
2018-04-22T03:24:07.114Z,98672.20
2018-04-22T03:26:34.940Z,98668.09
2018-04-22T03:29:02.351Z,98671.48
2018-04-22T03:31:29.744Z,98664.73
2018-04-22T03:33:57.189Z,98661.91
2018-04-22T03:36:24.586Z,98660.30
2018-04-22T03:38:51.976Z,98663.42
2018-04-22T03:41:19.551Z,98658.29
2018-04-22T03:43:46.966Z,98656.98
2018-04-22T03:46:14.353Z,98652.67
2018-04-22T03:48:41.884Z,98655.28
2018-04-22T03:51:09.268Z,98647.42
2018-04-22T03:53:36.673Z,98653.41
2018-04-22T03:56:04.077Z,98651.92
2018-04-22T03:58:31.613Z,98652.75
2018-04-22T04:00:59.006Z,98646.88
2018-04-22T04:03:26.418Z,98648.42
2018-04-22T04:05:53.826Z,98647.89
2018-04-22T04:08:21.464Z,98648.98
2018-04-22T04:10:48.867Z,98648.36
2018-04-22T04:13:16.631Z,98643.98
2018-04-22T04:15:44.171Z,98644.19
2018-04-22T04:21:36.365Z,98644.25
2018-04-22T04:27:24.892Z,98635.23
2018-04-22T04:29:52.415Z,98640.02
2018-04-22T04:32:19.802Z,98635.70
2018-04-22T04:34:47.204Z,98643.97
2018-04-22T04:37:14.600Z,98643.32
2018-04-22T04:39:42.245Z,98637.44
2018-04-22T04:42:09.632Z,98630.48
2018-04-22T04:44:37.048Z,98633.42
2018-04-22T04:47:04.483Z,98633.62
2018-04-22T04:49:31.891Z,98636.59
2018-04-22T04:51:59.295Z,98637.07
2018-04-22T04:54:26.750Z,98644.31
2018-04-22T04:56:54.262Z,98644.02
2018-04-22T04:59:21.676Z,98647.30
2018-04-22T05:01:49.068Z,98647.89
2018-04-22T05:04:16.475Z,98642.53
2018-04-22T05:06:44.028Z,98645.65
2018-04-22T05:09:11.437Z,98648.67
2018-04-22T05:11:38.831Z,98650.95
2018-04-22T05:14:06.269Z,98651.44
2018-04-22T05:16:33.736Z,98643.95
2018-04-22T05:19:01.151Z,98640.34
2018-04-22T05:21:28.533Z,98637.89
2018-04-22T05:23:56.167Z,98637.59
2018-04-22T05:26:24.009Z,98639.13
2018-04-22T05:28:51.420Z,98646.98
2018-04-22T05:31:18.876Z,98647.23
2018-04-22T05:33:46.268Z,98650.64
2018-04-22T05:36:13.672Z,98635.70
2018-04-22T05:38:41.270Z,98635.97
2018-04-22T05:41:08.852Z,98643.52
2018-04-22T05:43:36.241Z,98641.94
2018-04-22T05:46:03.659Z,98634.06
2018-04-22T05:48:31.107Z,98642.94
2018-04-22T05:50:58.564Z,98644.47
2018-04-22T05:53:25.952Z,98647.75
2018-04-22T05:55:53.388Z,98641.52
2018-04-22T05:58:21.054Z,98651.94
2018-04-22T06:00:48.448Z,98650.00
2018-04-22T06:03:15.840Z,98644.48
2018-04-22T06:05:43.257Z,98645.05
2018-04-22T06:08:11.039Z,98650.81
2018-04-22T06:10:38.445Z,98651.45
2018-04-22T06:13:05.832Z,98658.94
2018-04-22T06:15:33.386Z,98658.44
2018-04-22T06:18:00.937Z,98661.17
2018-04-22T06:20:28.641Z,98655.50
2018-04-22T06:22:56.032Z,98662.33
2018-04-22T06:25:23.467Z,98662.98
2018-04-22T06:27:50.864Z,98666.30
2018-04-22T06:30:18.275Z,98649.98
2018-04-22T06:32:45.671Z,98646.67
2018-04-22T06:35:13.868Z,98645.88
2018-04-22T06:37:41.281Z,98649.76
2018-04-22T06:40:08.688Z,98642.48
2018-04-22T06:42:36.448Z,98640.05
2018-04-22T06:45:03.840Z,98632.69
2018-04-22T06:47:31.248Z,98638.78
2018-04-22T06:49:58.708Z,98644.30
2018-04-22T06:52:26.181Z,98642.66
2018-04-22T06:54:53.635Z,98635.00
2018-04-22T06:57:21.069Z,98652.81
2018-04-22T06:59:48.489Z,98643.02
2018-04-22T07:02:16.672Z,98642.09
2018-04-22T07:04:44.545Z,98648.51
2018-04-22T07:07:12.800Z,98647.70
2018-04-22T07:09:40.193Z,98646.34
2018-04-22T07:12:07.588Z,98639.59
2018-04-22T07:14:35.373Z,98639.95
2018-04-22T07:17:02.899Z,98650.06
2018-04-22T07:19:30.295Z,98639.59
2018-04-22T07:21:58.408Z,98639.66
2018-04-22T07:24:25.803Z,98642.91
2018-04-22T07:26:54.222Z,98638.90
2018-04-22T07:29:21.688Z,98646.72
2018-04-22T07:31:49.886Z,98643.92
2018-04-22T07:34:18.180Z,98647.25
2018-04-22T07:36:45.579Z,98650.40
2018-04-22T07:39:13.111Z,98645.59
2018-04-22T07:41:40.851Z,98648.72
2018-04-22T07:44:10.707Z,98648.95
2018-04-22T07:46:38.134Z,98653.61
2018-04-22T07:49:05.521Z,98651.16
2018-04-22T07:51:32.922Z,98649.89
2018-04-22T07:54:00.331Z,98649.52
2018-04-22T07:56:27.724Z,98652.84
2018-04-22T07:58:55.398Z,98650.23
2018-04-22T08:01:23.164Z,98645.70
2018-04-22T08:03:53.189Z,98642.27
2018-04-22T08:06:25.738Z,98645.55
2018-04-22T08:08:53.220Z,98646.07
2018-04-22T08:11:20.623Z,98649.65
2018-04-22T08:13:49.109Z,98650.13
2018-04-22T08:16:16.796Z,98649.89
2018-04-22T08:18:44.196Z,98645.41
2018-04-22T08:21:11.590Z,98643.70
2018-04-22T08:23:39.092Z,98642.14
2018-04-22T08:26:06.439Z,98642.28
2018-04-22T08:28:33.852Z,98641.30
2018-04-22T08:31:04.135Z,98646.92
2018-04-22T08:33:33.776Z,98642.72
2018-04-22T08:36:02.342Z,98640.38
2018-04-22T08:38:31.645Z,98640.73
2018-04-22T08:41:02.046Z,98638.09
2018-04-22T08:43:31.287Z,98638.98
2018-04-22T08:45:59.193Z,98642.52
2018-04-22T08:48:27.576Z,98643.33
2018-04-22T08:50:57.673Z,98645.20
2018-04-22T08:53:26.297Z,98651.14
2018-04-22T08:55:56.527Z,98646.95
2018-04-22T09:15:42.118Z,98640.05
2018-04-22T09:18:11.988Z,98638.48
2018-04-22T09:20:41.036Z,98634.34
2018-04-22T09:23:10.647Z,98642.41
2018-04-22T09:25:40.130Z,98635.11
2018-04-22T09:28:09.359Z,98627.06
2018-04-22T09:30:37.835Z,98631.00
2018-04-22T09:33:08.049Z,98630.52
2018-04-22T09:35:36.949Z,98632.73
2018-04-22T09:38:07.074Z,98632.62
2018-04-22T09:40:36.236Z,98635.07
2018-04-22T09:43:18.322Z,98629.45
2018-04-22T09:49:08.864Z,98624.37
2018-04-22T09:51:38.199Z,98624.58
2018-04-22T09:54:07.611Z,98623.05
2018-04-22T09:56:36.988Z,98618.86
2018-04-22T09:59:06.501Z,98619.77
2018-04-22T10:01:37.716Z,98620.52
2018-04-22T10:04:10.438Z,98620.27
2018-04-22T10:06:39.262Z,98612.45
2018-04-22T10:09:09.192Z,98612.80
2018-04-22T10:11:38.885Z,98609.91
2018-04-22T10:14:10.388Z,98602.34
2018-04-22T10:16:39.917Z,98603.88
2018-04-22T10:19:14.869Z,98594.77
2018-04-22T10:21:46.233Z,98605.13
2018-04-22T10:24:15.190Z,98596.72
2018-04-22T10:26:45.992Z,98589.48
2018-04-22T10:29:15.998Z,98591.39
2018-04-22T10:31:45.893Z,98589.84
2018-04-22T10:34:13.275Z,98589.73
2018-04-22T10:36:40.693Z,98581.49
2018-04-22T10:39:08.081Z,98582.80
2018-04-22T10:41:35.491Z,98580.05
2018-04-22T10:44:02.880Z,98581.44
2018-04-22T10:46:30.918Z,98573.81
2018-04-22T10:48:58.390Z,98575.55
2018-04-22T10:51:26.691Z,98563.58
2018-04-22T10:53:54.248Z,98566.19
2018-04-22T10:56:21.633Z,98562.50
2018-04-22T10:58:49.067Z,98561.01
2018-04-22T11:01:19.516Z,98561.60
2018-04-22T11:03:46.939Z,98555.32
2018-04-22T11:06:15.125Z,98554.27
2018-04-22T11:08:42.500Z,98549.23
2018-04-22T11:11:09.897Z,98545.53
2018-04-22T11:13:37.403Z,98546.48
2018-04-22T11:16:04.780Z,98539.13
2018-04-22T11:18:32.167Z,98540.18
2018-04-22T11:20:59.568Z,98537.13
2018-04-22T11:23:27.077Z,98532.00
2018-04-22T11:25:54.451Z,98529.79
2018-04-22T15:01:32.900Z,98307.32
2018-04-22T15:04:01.214Z,98313.72
2018-04-22T15:06:29.587Z,98306.60
2018-04-22T15:08:56.987Z,98311.06
2018-04-22T15:11:24.571Z,98307.59
2018-04-22T15:13:51.951Z,98311.19
2018-04-22T15:16:19.350Z,98299.36
2018-04-22T15:18:46.745Z,98299.09
2018-04-22T15:21:14.133Z,98292.69
2018-04-22T15:23:41.657Z,98294.95
2018-04-22T15:26:09.079Z,98301.43
2018-04-22T15:28:36.469Z,98298.36
2018-04-22T15:31:04.088Z,98288.27
2018-04-22T15:33:33.500Z,98289.96
2018-04-22T15:36:01.245Z,98282.81
2018-04-22T15:38:28.642Z,98281.98
2018-04-22T15:40:56.064Z,98281.39
2018-04-22T15:43:23.464Z,98283.28
2018-04-22T15:45:50.849Z,98281.51
2018-04-22T15:48:18.825Z,98279.97
2018-04-22T15:50:46.208Z,98275.75
2018-04-22T15:53:13.613Z,98277.31
2018-04-22T15:55:41.432Z,98277.69
2018-04-22T15:58:08.855Z,98276.81
2018-04-22T16:00:36.221Z,98279.80
2018-04-22T16:03:03.611Z,98279.41
2018-04-22T16:05:31.932Z,98277.11
2018-04-22T16:07:59.330Z,98282.84
2018-04-22T16:10:26.732Z,98277.92
2018-04-22T16:12:54.560Z,98276.00
2018-04-22T16:15:22.139Z,98281.83
2018-04-22T16:17:49.527Z,98277.23
2018-04-22T16:20:16.917Z,98272.22
2018-04-22T16:22:44.331Z,98273.66
2018-04-22T16:25:11.734Z,98279.04
2018-04-22T16:27:39.132Z,98274.83
2018-04-22T16:30:06.898Z,98274.72
2018-04-22T16:32:34.302Z,98270.37
2018-04-22T16:35:01.697Z,98275.37
2018-04-22T16:37:29.089Z,98278.70
2018-04-22T16:39:56.540Z,98279.64
2018-04-22T16:42:24.136Z,98277.30
2018-04-22T16:44:51.565Z,98282.36
2018-04-22T16:47:19.278Z,98282.81
2018-04-22T16:49:47.668Z,98282.12
2018-04-22T16:52:15.067Z,98283.28
2018-04-22T16:54:42.467Z,98284.36
2018-04-22T16:57:11.311Z,98290.78
2018-04-22T16:59:38.718Z,98288.03
2018-04-22T17:02:06.118Z,98289.66
2018-04-22T17:04:34.324Z,98292.28
2018-04-22T17:07:01.720Z,98285.61
2018-04-22T17:09:29.115Z,98285.36
2018-04-22T17:11:56.492Z,98286.02
2018-04-22T17:14:23.896Z,98286.81
2018-04-22T17:16:51.289Z,98293.44
2018-04-22T17:19:18.685Z,98297.52
2018-04-22T17:21:46.068Z,98300.63
2018-04-22T17:24:13.490Z,98311.41
2018-04-22T17:26:41.089Z,98320.47
2018-04-22T17:29:08.853Z,98315.63
2018-04-22T17:31:36.341Z,98327.78
2018-04-22T17:34:03.767Z,98326.12
2018-04-22T17:36:31.152Z,98326.44
2018-04-22T17:38:58.618Z,98329.81
2018-04-22T17:41:26.014Z,98337.06
2018-04-22T17:43:53.439Z,98339.63
2018-04-22T17:46:20.850Z,98340.91
2018-04-22T17:48:48.243Z,98343.19
2018-04-22T17:51:16.600Z,98346.20
2018-04-22T17:53:44.065Z,98342.81
2018-04-22T17:56:12.124Z,98346.20
2018-04-22T17:58:39.508Z,98353.16
2018-04-22T18:01:06.905Z,98362.98
2018-04-22T18:03:34.514Z,98351.30
2018-04-22T18:06:01.903Z,98360.95
2018-04-22T18:08:29.295Z,98363.22
2018-04-22T18:10:57.321Z,98360.95
2018-04-22T18:13:24.722Z,98365.03
2018-04-22T18:15:52.115Z,98368.17
2018-04-22T18:18:19.496Z,98375.67
2018-04-22T18:20:47.332Z,98377.39
2018-04-22T18:23:15.437Z,98380.22
2018-04-22T18:25:42.844Z,98385.47
2018-04-22T18:28:10.219Z,98385.77
2018-04-22T18:30:38.103Z,98389.23
2018-04-22T18:33:05.497Z,98389.75
2018-04-22T18:35:33.617Z,98396.00
2018-04-22T18:38:01.001Z,98395.30
2018-04-22T18:40:28.400Z,98393.59
2018-04-22T18:42:55.789Z,98391.13
2018-04-22T18:45:23.473Z,98400.86
2018-04-22T18:47:50.877Z,98404.84
2018-04-22T18:50:18.272Z,98407.97
2018-04-22T18:52:45.663Z,98414.24
2018-04-22T18:55:13.074Z,98414.10
2018-04-22T18:57:40.465Z,98412.39
2018-04-22T19:00:07.853Z,98410.00
2018-04-22T19:02:35.285Z,98417.28
2018-04-22T19:05:02.634Z,98420.41
2018-04-22T19:07:30.030Z,98424.77
2018-04-22T19:09:57.427Z,98424.58
2018-04-22T19:12:24.816Z,98416.74
2018-04-22T19:14:52.224Z,98423.36
2018-04-22T19:17:19.666Z,98422.80
2018-04-22T19:19:47.003Z,98427.26
2018-04-22T19:22:14.401Z,98434.89
2018-04-22T19:24:41.781Z,98433.25
2018-04-22T19:27:09.183Z,98432.72
2018-04-22T19:29:36.586Z,98435.33
2018-04-22T19:32:03.970Z,98438.50
2018-04-22T19:34:31.407Z,98438.72
2018-04-22T19:36:58.791Z,98442.72
2018-04-22T19:39:26.181Z,98436.34
2018-04-22T19:41:53.584Z,98441.83
2018-04-22T19:44:20.987Z,98446.05
2018-04-22T19:46:48.369Z,98452.23
2018-04-22T19:49:15.752Z,98445.33
2018-04-22T19:51:43.158Z,98449.86
2018-04-22T19:54:10.533Z,98451.30
2018-04-22T19:56:38.061Z,98453.47
2018-04-22T19:59:05.442Z,98450.98
2018-04-22T20:01:32.911Z,98438.81
2018-04-22T20:04:00.283Z,98443.20
2018-04-22T20:06:27.681Z,98448.23
2018-04-22T20:08:55.363Z,98446.75
2018-04-22T20:11:22.747Z,98449.84
2018-04-22T20:13:50.864Z,98453.19
2018-04-22T20:16:18.263Z,98455.44
2018-04-22T20:18:45.653Z,98451.30
2018-04-22T20:21:13.482Z,98454.59
2018-04-22T20:23:40.855Z,98457.84
2018-04-22T20:26:08.249Z,98460.91
2018-04-22T20:28:35.864Z,98456.73
2018-04-22T20:31:03.236Z,98458.97
2018-04-22T20:33:30.936Z,98463.45
2018-04-22T20:35:58.323Z,98467.52
2018-04-22T20:38:25.719Z,98473.44
2018-04-22T20:40:53.176Z,98473.72
2018-04-22T20:43:20.572Z,98469.81
2018-04-22T20:45:48.156Z,98474.88
2018-04-22T20:48:15.547Z,98473.14
2018-04-22T20:50:42.928Z,98473.83
2018-04-22T20:53:10.342Z,98475.33
2018-04-22T20:55:37.716Z,98473.19
2018-04-22T20:58:05.126Z,98480.97
2018-04-22T21:00:32.505Z,98481.91
2018-04-22T21:02:59.892Z,98478.58
2018-04-22T21:05:27.278Z,98483.17
2018-04-22T21:07:54.838Z,98484.67
2018-04-22T21:10:22.221Z,98480.09
2018-04-22T21:12:49.602Z,98486.50
2018-04-22T21:15:17.728Z,98484.52
2018-04-22T21:17:45.121Z,98483.88
2018-04-22T21:20:13.377Z,98489.30
2018-04-22T21:22:40.861Z,98495.88
2018-04-22T21:25:08.280Z,98497.30
2018-04-22T21:27:35.671Z,98502.46
2018-04-22T21:30:03.064Z,98504.22
2018-04-22T21:32:30.859Z,98507.95
2018-04-22T21:34:58.259Z,98516.77
2018-04-22T21:37:25.638Z,98518.10
2018-04-22T21:39:53.088Z,98518.67
2018-04-22T21:42:20.512Z,98521.00
2018-04-22T21:44:47.904Z,98522.03
2018-04-22T21:47:15.675Z,98526.30
2018-04-22T21:49:43.766Z,98519.02
2018-04-22T21:52:11.155Z,98529.34
2018-04-22T21:54:38.557Z,98528.58
2018-04-22T21:57:05.963Z,98532.92
2018-04-22T22:02:38.048Z,98529.87
2018-04-22T22:05:05.806Z,98529.98
2018-04-22T22:07:33.502Z,98527.20
2018-04-22T22:10:01.014Z,98531.28
2018-04-22T22:12:28.404Z,98527.12
2018-04-22T22:14:55.793Z,98531.13
2018-04-22T22:17:23.176Z,98530.67
2018-04-22T22:19:50.574Z,98532.13
2018-04-22T22:22:17.954Z,98535.09
2018-04-22T22:24:45.350Z,98543.36
2018-04-22T22:27:13.008Z,98532.88
2018-04-22T22:29:40.429Z,98536.22
2018-04-22T22:32:07.819Z,98538.78
2018-04-22T22:34:35.304Z,98540.68
2018-04-22T22:37:02.695Z,98544.56
2018-04-22T22:39:30.068Z,98546.16
2018-04-22T22:41:57.468Z,98544.73
2018-04-22T22:44:24.856Z,98540.81
2018-04-22T22:46:52.418Z,98546.43
2018-04-22T22:49:19.801Z,98551.30
2018-04-22T22:51:48.439Z,98553.35
2018-04-22T22:54:15.841Z,98552.98
2018-04-22T22:56:43.246Z,98557.23
2018-04-22T22:59:11.337Z,98556.98
2018-04-22T23:01:38.731Z,98550.42
2018-04-22T23:04:06.112Z,98553.17
2018-04-22T23:06:33.527Z,98553.48
2018-04-22T23:09:00.907Z,98542.02
2018-04-22T23:11:28.468Z,98537.34
2018-04-22T23:13:56.381Z,98534.30
2018-04-22T23:16:23.805Z,98542.49
2018-04-22T23:18:51.414Z,98538.76
2018-04-22T23:21:18.817Z,98542.95
2018-04-22T23:23:46.195Z,98544.23
2018-04-22T23:26:13.599Z,98541.91
2018-04-22T23:28:40.977Z,98540.48
2018-04-22T23:31:08.368Z,98541.00
2018-04-22T23:33:35.761Z,98543.13
2018-04-22T23:36:03.224Z,98544.75
2018-04-22T23:38:30.638Z,98542.70
2018-04-22T23:40:58.028Z,98543.32
2018-04-22T23:43:25.427Z,98545.98
2018-04-22T23:45:52.906Z,98548.56
2018-04-22T23:48:20.301Z,98544.70
2018-04-22T23:50:47.681Z,98548.09
2018-04-22T23:53:15.070Z,98547.11
2018-04-22T23:55:42.503Z,98544.83
2018-04-22T23:58:09.892Z,98540.59
